sensor_id;sensor_type;location;lat;lon;timestamp;P1;durP1;ratioP1;P2;durP2;ratioP2
27161;SDS011;54464;50.558;9.704;2022-07-06T00:01:16;2.87;;;2.00;;
27161;SDS011;54464;50.558;9.704;2022-07-06T00:03:43;2.00;;;1.60;;
27161;SDS011;54464;50.558;9.704;2022-07-06T00:06:08;3.40;;;1.90;;
27161;SDS011;54464;50.558;9.704;2022-07-06T00:08:34;2.23;;;1.80;;
27161;SDS011;54464;50.558;9.704;2022-07-06T00:11:00;2.53;;;2.07;;
27161;SDS011;54464;50.558;9.704;2022-07-06T00:13:26;1.80;;;1.60;;
27161;SDS011;54464;50.558;9.704;2022-07-06T00:15:52;3.07;;;1.70;;
27161;SDS011;54464;50.558;9.704;2022-07-06T00:18:18;1.93;;;1.77;;
27161;SDS011;54464;50.558;9.704;2022-07-06T00:20:44;3.27;;;1.80;;
27161;SDS011;54464;50.558;9.704;2022-07-06T00:23:10;3.87;;;1.90;;
27161;SDS011;54464;50.558;9.704;2022-07-06T00:25:35;2.77;;;1.90;;
27161;SDS011;54464;50.558;9.704;2022-07-06T00:28:01;1.90;;;1.80;;
27161;SDS011;54464;50.558;9.704;2022-07-06T00:30:28;3.33;;;1.93;;
27161;SDS011;54464;50.558;9.704;2022-07-06T00:32:53;3.87;;;2.10;;
27161;SDS011;54464;50.558;9.704;2022-07-06T00:35:19;2.50;;;1.90;;
27161;SDS011;54464;50.558;9.704;2022-07-06T00:37:45;2.83;;;2.20;;
27161;SDS011;54464;50.558;9.704;2022-07-06T00:40:11;2.87;;;1.93;;
27161;SDS011;54464;50.558;9.704;2022-07-06T00:42:44;3.87;;;1.90;;
27161;SDS011;54464;50.558;9.704;2022-07-06T00:45:11;2.77;;;2.00;;
27161;SDS011;54464;50.558;9.704;2022-07-06T00:47:39;3.30;;;2.07;;
27161;SDS011;54464;50.558;9.704;2022-07-06T00:50:06;2.60;;;1.80;;
27161;SDS011;54464;50.558;9.704;2022-07-06T00:52:40;2.20;;;1.60;;
27161;SDS011;54464;50.558;9.704;2022-07-06T00:55:07;2.63;;;2.10;;
27161;SDS011;54464;50.558;9.704;2022-07-06T00:57:35;2.97;;;1.90;;
27161;SDS011;54464;50.558;9.704;2022-07-06T01:00:02;3.40;;;1.80;;
27161;SDS011;54464;50.558;9.704;2022-07-06T01:02:32;1.87;;;1.77;;
27161;SDS011;54464;50.558;9.704;2022-07-06T01:04:59;3.30;;;1.87;;
27161;SDS011;54464;50.558;9.704;2022-07-06T01:07:25;3.53;;;1.87;;
27161;SDS011;54464;50.558;9.704;2022-07-06T01:09:52;4.50;;;2.47;;
27161;SDS011;54464;50.558;9.704;2022-07-06T01:12:18;2.30;;;2.00;;
27161;SDS011;54464;50.558;9.704;2022-07-06T01:14:44;3.67;;;1.97;;
27161;SDS011;54464;50.558;9.704;2022-07-06T01:17:10;2.10;;;1.70;;
27161;SDS011;54464;50.558;9.704;2022-07-06T01:19:37;4.13;;;1.93;;
27161;SDS011;54464;50.558;9.704;2022-07-06T01:22:02;3.30;;;2.00;;
27161;SDS011;54464;50.558;9.704;2022-07-06T01:24:28;2.27;;;1.90;;
27161;SDS011;54464;50.558;9.704;2022-07-06T01:26:54;4.03;;;2.03;;
27161;SDS011;54464;50.558;9.704;2022-07-06T01:29:19;2.00;;;1.60;;
27161;SDS011;54464;50.558;9.704;2022-07-06T01:31:49;4.13;;;2.00;;
27161;SDS011;54464;50.558;9.704;2022-07-06T01:34:16;2.97;;;1.90;;
27161;SDS011;54464;50.558;9.704;2022-07-06T01:36:42;3.93;;;2.00;;
27161;SDS011;54464;50.558;9.704;2022-07-06T01:39:09;4.13;;;2.23;;
27161;SDS011;54464;50.558;9.704;2022-07-06T01:41:35;3.17;;;2.10;;
27161;SDS011;54464;50.558;9.704;2022-07-06T01:44:02;3.97;;;2.00;;
27161;SDS011;54464;50.558;9.704;2022-07-06T01:46:28;1.83;;;1.73;;
27161;SDS011;54464;50.558;9.704;2022-07-06T01:48:54;2.10;;;1.90;;
27161;SDS011;54464;50.558;9.704;2022-07-06T01:51:20;1.90;;;1.80;;
27161;SDS011;54464;50.558;9.704;2022-07-06T01:53:46;2.37;;;2.03;;
27161;SDS011;54464;50.558;9.704;2022-07-06T01:56:11;4.80;;;1.80;;
27161;SDS011;54464;50.558;9.704;2022-07-06T01:58:38;3.63;;;1.83;;
27161;SDS011;54464;50.558;9.704;2022-07-06T02:01:08;3.50;;;1.93;;
27161;SDS011;54464;50.558;9.704;2022-07-06T02:03:34;2.10;;;1.70;;
27161;SDS011;54464;50.558;9.704;2022-07-06T02:06:00;2.70;;;2.00;;
27161;SDS011;54464;50.558;9.704;2022-07-06T02:08:26;2.77;;;2.07;;
27161;SDS011;54464;50.558;9.704;2022-07-06T02:10:52;2.10;;;1.90;;
27161;SDS011;54464;50.558;9.704;2022-07-06T02:13:18;4.57;;;1.93;;
27161;SDS011;54464;50.558;9.704;2022-07-06T02:15:43;3.70;;;1.70;;
27161;SDS011;54464;50.558;9.704;2022-07-06T02:18:09;2.20;;;1.70;;
27161;SDS011;54464;50.558;9.704;2022-07-06T02:20:35;2.27;;;1.60;;
27161;SDS011;54464;50.558;9.704;2022-07-06T02:23:00;3.60;;;1.80;;
27161;SDS011;54464;50.558;9.704;2022-07-06T02:25:26;3.53;;;1.73;;
27161;SDS011;54464;50.558;9.704;2022-07-06T02:27:51;4.43;;;2.03;;
27161;SDS011;54464;50.558;9.704;2022-07-06T02:30:17;2.57;;;1.93;;
27161;SDS011;54464;50.558;9.704;2022-07-06T02:32:43;4.20;;;2.03;;
27161;SDS011;54464;50.558;9.704;2022-07-06T02:35:08;2.70;;;1.77;;
27161;SDS011;54464;50.558;9.704;2022-07-06T02:37:34;3.20;;;2.20;;
27161;SDS011;54464;50.558;9.704;2022-07-06T02:40:00;2.80;;;2.17;;
27161;SDS011;54464;50.558;9.704;2022-07-06T02:42:26;3.50;;;1.87;;
27161;SDS011;54464;50.558;9.704;2022-07-06T02:44:52;2.00;;;1.90;;
27161;SDS011;54464;50.558;9.704;2022-07-06T02:47:18;2.10;;;1.90;;
27161;SDS011;54464;50.558;9.704;2022-07-06T02:49:44;2.43;;;1.93;;
27161;SDS011;54464;50.558;9.704;2022-07-06T02:52:10;3.33;;;2.20;;
27161;SDS011;54464;50.558;9.704;2022-07-06T02:54:35;3.13;;;2.07;;
27161;SDS011;54464;50.558;9.704;2022-07-06T02:57:01;3.40;;;1.90;;
27161;SDS011;54464;50.558;9.704;2022-07-06T02:59:27;2.53;;;2.07;;
27161;SDS011;54464;50.558;9.704;2022-07-06T03:01:52;4.63;;;2.40;;
27161;SDS011;54464;50.558;9.704;2022-07-06T03:04:18;2.93;;;2.10;;
27161;SDS011;54464;50.558;9.704;2022-07-06T03:06:44;2.40;;;2.20;;
27161;SDS011;54464;50.558;9.704;2022-07-06T03:09:09;2.23;;;2.00;;
27161;SDS011;54464;50.558;9.704;2022-07-06T03:11:35;2.87;;;1.97;;
27161;SDS011;54464;50.558;9.704;2022-07-06T03:14:04;2.60;;;2.10;;
27161;SDS011;54464;50.558;9.704;2022-07-06T03:16:30;3.57;;;2.17;;
27161;SDS011;54464;50.558;9.704;2022-07-06T03:18:56;4.03;;;2.40;;
27161;SDS011;54464;50.558;9.704;2022-07-06T03:21:25;3.13;;;2.17;;
27161;SDS011;54464;50.558;9.704;2022-07-06T03:23:51;3.67;;;2.23;;
27161;SDS011;54464;50.558;9.704;2022-07-06T03:26:16;2.40;;;2.20;;
27161;SDS011;54464;50.558;9.704;2022-07-06T03:28:42;4.30;;;2.47;;
27161;SDS011;54464;50.558;9.704;2022-07-06T03:31:08;3.50;;;2.40;;
27161;SDS011;54464;50.558;9.704;2022-07-06T03:33:34;2.47;;;2.10;;
27161;SDS011;54464;50.558;9.704;2022-07-06T03:35:59;2.57;;;2.37;;
27161;SDS011;54464;50.558;9.704;2022-07-06T03:38:25;4.37;;;2.20;;
27161;SDS011;54464;50.558;9.704;2022-07-06T03:40:51;2.63;;;2.43;;
27161;SDS011;54464;50.558;9.704;2022-07-06T03:43:17;4.73;;;2.20;;
27161;SDS011;54464;50.558;9.704;2022-07-06T03:45:42;3.40;;;2.47;;
27161;SDS011;54464;50.558;9.704;2022-07-06T03:48:08;3.23;;;2.40;;
27161;SDS011;54464;50.558;9.704;2022-07-06T03:50:34;3.17;;;2.27;;
27161;SDS011;54464;50.558;9.704;2022-07-06T03:52:59;3.37;;;2.47;;
27161;SDS011;54464;50.558;9.704;2022-07-06T03:55:26;2.43;;;2.17;;
27161;SDS011;54464;50.558;9.704;2022-07-06T03:57:51;3.90;;;2.10;;
27161;SDS011;54464;50.558;9.704;2022-07-06T04:00:17;2.83;;;2.13;;
27161;SDS011;54464;50.558;9.704;2022-07-06T04:02:43;2.93;;;2.00;;
27161;SDS011;54464;50.558;9.704;2022-07-06T04:05:08;3.70;;;2.40;;
27161;SDS011;54464;50.558;9.704;2022-07-06T04:07:34;4.27;;;2.93;;
27161;SDS011;54464;50.558;9.704;2022-07-06T04:10:00;3.33;;;2.90;;
27161;SDS011;54464;50.558;9.704;2022-07-06T04:12:25;4.47;;;2.97;;
27161;SDS011;54464;50.558;9.704;2022-07-06T04:14:51;5.27;;;3.50;;
27161;SDS011;54464;50.558;9.704;2022-07-06T04:17:17;5.07;;;4.00;;
27161;SDS011;54464;50.558;9.704;2022-07-06T04:20:02;4.90;;;3.20;;
27161;SDS011;54464;50.558;9.704;2022-07-06T04:22:27;4.00;;;2.50;;
27161;SDS011;54464;50.558;9.704;2022-07-06T04:24:53;3.40;;;2.57;;
27161;SDS011;54464;50.558;9.704;2022-07-06T04:27:19;3.40;;;2.53;;
27161;SDS011;54464;50.558;9.704;2022-07-06T04:29:44;3.27;;;2.30;;
27161;SDS011;54464;50.558;9.704;2022-07-06T04:32:10;4.07;;;2.40;;
27161;SDS011;54464;50.558;9.704;2022-07-06T04:34:36;2.77;;;2.17;;
27161;SDS011;54464;50.558;9.704;2022-07-06T04:37:02;3.20;;;2.10;;
27161;SDS011;54464;50.558;9.704;2022-07-06T04:39:27;5.53;;;2.30;;
27161;SDS011;54464;50.558;9.704;2022-07-06T04:41:55;2.60;;;2.10;;
27161;SDS011;54464;50.558;9.704;2022-07-06T04:44:21;3.87;;;2.60;;
27161;SDS011;54464;50.558;9.704;2022-07-06T04:46:47;3.00;;;1.90;;
27161;SDS011;54464;50.558;9.704;2022-07-06T04:49:12;4.40;;;2.20;;
27161;SDS011;54464;50.558;9.704;2022-07-06T04:51:38;3.50;;;2.40;;
27161;SDS011;54464;50.558;9.704;2022-07-06T04:54:04;2.73;;;2.17;;
27161;SDS011;54464;50.558;9.704;2022-07-06T04:56:30;2.50;;;2.03;;
27161;SDS011;54464;50.558;9.704;2022-07-06T04:58:56;3.97;;;2.13;;
27161;SDS011;54464;50.558;9.704;2022-07-06T05:01:21;4.13;;;2.03;;
27161;SDS011;54464;50.558;9.704;2022-07-06T05:03:47;3.23;;;2.03;;
27161;SDS011;54464;50.558;9.704;2022-07-06T05:06:13;4.20;;;2.40;;
27161;SDS011;54464;50.558;9.704;2022-07-06T05:08:39;3.93;;;2.17;;
27161;SDS011;54464;50.558;9.704;2022-07-06T05:11:05;3.13;;;1.90;;
27161;SDS011;54464;50.558;9.704;2022-07-06T05:13:30;2.77;;;2.30;;
27161;SDS011;54464;50.558;9.704;2022-07-06T05:15:56;4.83;;;2.07;;
27161;SDS011;54464;50.558;9.704;2022-07-06T05:18:22;3.63;;;2.00;;
27161;SDS011;54464;50.558;9.704;2022-07-06T05:20:47;3.13;;;2.10;;
27161;SDS011;54464;50.558;9.704;2022-07-06T05:23:13;5.20;;;2.40;;
27161;SDS011;54464;50.558;9.704;2022-07-06T05:25:39;4.40;;;2.30;;
27161;SDS011;54464;50.558;9.704;2022-07-06T05:28:04;3.00;;;2.20;;
27161;SDS011;54464;50.558;9.704;2022-07-06T05:30:30;4.10;;;2.50;;
27161;SDS011;54464;50.558;9.704;2022-07-06T05:32:56;2.53;;;2.20;;
27161;SDS011;54464;50.558;9.704;2022-07-06T05:35:21;2.53;;;2.10;;
27161;SDS011;54464;50.558;9.704;2022-07-06T05:37:47;3.63;;;2.13;;
27161;SDS011;54464;50.558;9.704;2022-07-06T05:40:13;3.43;;;2.20;;
27161;SDS011;54464;50.558;9.704;2022-07-06T05:42:38;3.27;;;2.13;;
27161;SDS011;54464;50.558;9.704;2022-07-06T05:45:04;7.83;;;2.50;;
27161;SDS011;54464;50.558;9.704;2022-07-06T05:47:31;2.77;;;2.13;;
27161;SDS011;54464;50.558;9.704;2022-07-06T05:50:16;3.50;;;2.20;;
27161;SDS011;54464;50.558;9.704;2022-07-06T05:52:43;3.93;;;2.23;;
27161;SDS011;54464;50.558;9.704;2022-07-06T05:55:10;3.33;;;2.20;;
27161;SDS011;54464;50.558;9.704;2022-07-06T05:57:36;2.93;;;2.10;;
27161;SDS011;54464;50.558;9.704;2022-07-06T06:00:03;3.07;;;2.30;;
27161;SDS011;54464;50.558;9.704;2022-07-06T06:02:39;6.63;;;2.37;;
27161;SDS011;54464;50.558;9.704;2022-07-06T06:05:07;3.27;;;2.00;;
27161;SDS011;54464;50.558;9.704;2022-07-06T06:07:37;5.30;;;2.10;;
27161;SDS011;54464;50.558;9.704;2022-07-06T06:10:08;2.67;;;2.00;;
27161;SDS011;54464;50.558;9.704;2022-07-06T06:12:35;5.23;;;2.30;;
27161;SDS011;54464;50.558;9.704;2022-07-06T06:15:01;5.40;;;2.10;;
27161;SDS011;54464;50.558;9.704;2022-07-06T06:17:26;3.63;;;2.23;;
27161;SDS011;54464;50.558;9.704;2022-07-06T06:19:52;4.50;;;2.10;;
27161;SDS011;54464;50.558;9.704;2022-07-06T06:22:18;3.30;;;2.30;;
27161;SDS011;54464;50.558;9.704;2022-07-06T06:24:44;3.60;;;2.20;;
27161;SDS011;54464;50.558;9.704;2022-07-06T06:27:10;6.03;;;2.40;;
27161;SDS011;54464;50.558;9.704;2022-07-06T06:29:36;3.43;;;2.17;;
27161;SDS011;54464;50.558;9.704;2022-07-06T06:32:02;3.57;;;2.17;;
27161;SDS011;54464;50.558;9.704;2022-07-06T06:34:28;4.43;;;2.00;;
27161;SDS011;54464;50.558;9.704;2022-07-06T06:36:53;4.27;;;2.00;;
27161;SDS011;54464;50.558;9.704;2022-07-06T06:39:19;4.10;;;2.20;;
27161;SDS011;54464;50.558;9.704;2022-07-06T06:41:45;3.37;;;2.13;;
27161;SDS011;54464;50.558;9.704;2022-07-06T06:44:10;2.90;;;2.60;;
27161;SDS011;54464;50.558;9.704;2022-07-06T06:46:36;4.23;;;2.07;;
27161;SDS011;54464;50.558;9.704;2022-07-06T06:49:03;4.87;;;2.13;;
27161;SDS011;54464;50.558;9.704;2022-07-06T06:51:28;4.43;;;2.20;;
27161;SDS011;54464;50.558;9.704;2022-07-06T06:53:54;4.47;;;2.40;;
27161;SDS011;54464;50.558;9.704;2022-07-06T06:56:20;4.47;;;2.40;;
27161;SDS011;54464;50.558;9.704;2022-07-06T06:58:45;4.40;;;2.30;;
27161;SDS011;54464;50.558;9.704;2022-07-06T07:01:11;3.70;;;2.40;;
27161;SDS011;54464;50.558;9.704;2022-07-06T07:03:37;6.47;;;2.50;;
27161;SDS011;54464;50.558;9.704;2022-07-06T07:06:02;4.63;;;2.50;;
27161;SDS011;54464;50.558;9.704;2022-07-06T07:08:28;4.63;;;2.30;;
27161;SDS011;54464;50.558;9.704;2022-07-06T07:10:54;5.03;;;2.60;;
27161;SDS011;54464;50.558;9.704;2022-07-06T07:13:20;7.37;;;2.73;;
27161;SDS011;54464;50.558;9.704;2022-07-06T07:15:45;2.97;;;2.13;;
27161;SDS011;54464;50.558;9.704;2022-07-06T07:18:11;4.73;;;2.90;;
27161;SDS011;54464;50.558;9.704;2022-07-06T07:20:36;3.97;;;2.40;;
27161;SDS011;54464;50.558;9.704;2022-07-06T07:23:02;4.37;;;2.00;;
27161;SDS011;54464;50.558;9.704;2022-07-06T07:25:28;3.80;;;2.00;;
27161;SDS011;54464;50.558;9.704;2022-07-06T07:27:54;5.37;;;2.07;;
27161;SDS011;54464;50.558;9.704;2022-07-06T07:30:20;5.20;;;2.57;;
27161;SDS011;54464;50.558;9.704;2022-07-06T07:32:45;3.77;;;2.00;;
27161;SDS011;54464;50.558;9.704;2022-07-06T07:35:11;2.30;;;1.80;;
27161;SDS011;54464;50.558;9.704;2022-07-06T07:37:37;6.13;;;2.20;;
27161;SDS011;54464;50.558;9.704;2022-07-06T07:40:03;2.87;;;1.80;;
27161;SDS011;54464;50.558;9.704;2022-07-06T07:42:30;2.67;;;2.00;;
27161;SDS011;54464;50.558;9.704;2022-07-06T07:44:56;3.27;;;2.10;;
27161;SDS011;54464;50.558;9.704;2022-07-06T07:47:22;3.13;;;2.07;;
27161;SDS011;54464;50.558;9.704;2022-07-06T07:49:47;2.77;;;1.80;;
27161;SDS011;54464;50.558;9.704;2022-07-06T07:52:13;3.17;;;2.10;;
27161;SDS011;54464;50.558;9.704;2022-07-06T07:54:39;4.43;;;2.03;;
27161;SDS011;54464;50.558;9.704;2022-07-06T07:57:05;3.10;;;2.27;;
27161;SDS011;54464;50.558;9.704;2022-07-06T07:59:30;3.07;;;1.90;;
27161;SDS011;54464;50.558;9.704;2022-07-06T08:01:56;4.17;;;2.53;;
27161;SDS011;54464;50.558;9.704;2022-07-06T08:04:22;3.20;;;2.03;;
27161;SDS011;54464;50.558;9.704;2022-07-06T08:06:48;2.10;;;1.90;;
27161;SDS011;54464;50.558;9.704;2022-07-06T08:09:13;3.83;;;2.43;;
27161;SDS011;54464;50.558;9.704;2022-07-06T08:11:40;5.17;;;2.17;;
27161;SDS011;54464;50.558;9.704;2022-07-06T08:14:06;3.33;;;2.40;;
27161;SDS011;54464;50.558;9.704;2022-07-06T08:16:32;2.47;;;2.17;;
27161;SDS011;54464;50.558;9.704;2022-07-06T08:18:57;6.30;;;2.20;;
27161;SDS011;54464;50.558;9.704;2022-07-06T08:21:23;4.60;;;2.10;;
27161;SDS011;54464;50.558;9.704;2022-07-06T08:23:49;2.63;;;2.00;;
27161;SDS011;54464;50.558;9.704;2022-07-06T08:26:15;2.87;;;1.90;;
27161;SDS011;54464;50.558;9.704;2022-07-06T08:28:40;3.23;;;1.70;;
27161;SDS011;54464;50.558;9.704;2022-07-06T08:31:06;4.60;;;2.10;;
27161;SDS011;54464;50.558;9.704;2022-07-06T08:33:32;2.97;;;2.03;;
27161;SDS011;54464;50.558;9.704;2022-07-06T08:35:57;2.47;;;2.27;;
27161;SDS011;54464;50.558;9.704;2022-07-06T08:38:24;4.33;;;2.20;;
27161;SDS011;54464;50.558;9.704;2022-07-06T08:40:50;3.37;;;2.03;;
27161;SDS011;54464;50.558;9.704;2022-07-06T08:43:16;2.87;;;1.90;;
27161;SDS011;54464;50.558;9.704;2022-07-06T08:45:42;5.00;;;2.20;;
27161;SDS011;54464;50.558;9.704;2022-07-06T08:48:10;3.73;;;2.17;;
27161;SDS011;54464;50.558;9.704;2022-07-06T08:50:36;5.50;;;2.00;;
27161;SDS011;54464;50.558;9.704;2022-07-06T08:53:03;5.27;;;2.00;;
27161;SDS011;54464;50.558;9.704;2022-07-06T08:55:29;2.30;;;1.77;;
27161;SDS011;54464;50.558;9.704;2022-07-06T08:57:55;2.23;;;1.90;;
27161;SDS011;54464;50.558;9.704;2022-07-06T09:00:22;2.37;;;2.13;;
27161;SDS011;54464;50.558;9.704;2022-07-06T09:02:50;4.83;;;2.30;;
27161;SDS011;54464;50.558;9.704;2022-07-06T09:05:18;3.07;;;2.03;;
27161;SDS011;54464;50.558;9.704;2022-07-06T09:07:51;2.57;;;1.80;;
27161;SDS011;54464;50.558;9.704;2022-07-06T09:10:17;4.53;;;2.00;;
27161;SDS011;54464;50.558;9.704;2022-07-06T09:12:45;4.47;;;1.90;;
27161;SDS011;54464;50.558;9.704;2022-07-06T09:15:11;2.47;;;1.80;;
27161;SDS011;54464;50.558;9.704;2022-07-06T09:17:37;2.97;;;1.90;;
27161;SDS011;54464;50.558;9.704;2022-07-06T09:20:06;4.80;;;2.07;;
27161;SDS011;54464;50.558;9.704;2022-07-06T09:22:34;5.77;;;2.00;;
27161;SDS011;54464;50.558;9.704;2022-07-06T09:25:10;3.50;;;1.90;;
27161;SDS011;54464;50.558;9.704;2022-07-06T09:27:38;4.40;;;2.13;;
27161;SDS011;54464;50.558;9.704;2022-07-06T09:30:12;2.97;;;1.80;;
27161;SDS011;54464;50.558;9.704;2022-07-06T09:32:41;3.13;;;1.80;;
27161;SDS011;54464;50.558;9.704;2022-07-06T09:37:46;2.40;;;2.20;;
27161;SDS011;54464;50.558;9.704;2022-07-06T09:40:19;4.80;;;1.80;;
27161;SDS011;54464;50.558;9.704;2022-07-06T09:42:45;4.13;;;2.10;;
27161;SDS011;54464;50.558;9.704;2022-07-06T09:45:10;4.07;;;2.23;;
27161;SDS011;54464;50.558;9.704;2022-07-06T09:47:36;2.53;;;1.80;;
27161;SDS011;54464;50.558;9.704;2022-07-06T09:50:05;2.53;;;1.80;;
27161;SDS011;54464;50.558;9.704;2022-07-06T09:52:34;2.20;;;1.70;;
27161;SDS011;54464;50.558;9.704;2022-07-06T09:55:00;3.97;;;1.87;;
27161;SDS011;54464;50.558;9.704;2022-07-06T09:57:30;3.03;;;1.63;;
27161;SDS011;54464;50.558;9.704;2022-07-06T09:59:56;2.87;;;1.73;;
27161;SDS011;54464;50.558;9.704;2022-07-06T10:02:23;3.93;;;1.60;;
27161;SDS011;54464;50.558;9.704;2022-07-06T10:04:51;2.13;;;1.53;;
27161;SDS011;54464;50.558;9.704;2022-07-06T10:07:20;2.77;;;1.60;;
27161;SDS011;54464;50.558;9.704;2022-07-06T10:09:49;2.20;;;1.50;;
27161;SDS011;54464;50.558;9.704;2022-07-06T10:12:16;4.00;;;1.50;;
27161;SDS011;54464;50.558;9.704;2022-07-06T10:14:44;2.20;;;1.53;;
27161;SDS011;54464;50.558;9.704;2022-07-06T10:17:10;2.37;;;1.40;;
27161;SDS011;54464;50.558;9.704;2022-07-06T10:19:38;4.57;;;1.43;;
27161;SDS011;54464;50.558;9.704;2022-07-06T10:22:05;1.83;;;1.20;;
27161;SDS011;54464;50.558;9.704;2022-07-06T10:24:32;2.30;;;1.10;;
27161;SDS011;54464;50.558;9.704;2022-07-06T10:27:04;2.67;;;1.30;;
27161;SDS011;54464;50.558;9.704;2022-07-06T10:29:30;1.67;;;1.10;;
27161;SDS011;54464;50.558;9.704;2022-07-06T10:31:57;2.50;;;1.20;;
27161;SDS011;54464;50.558;9.704;2022-07-06T10:34:25;2.27;;;1.23;;
27161;SDS011;54464;50.558;9.704;2022-07-06T10:36:52;4.97;;;1.20;;
27161;SDS011;54464;50.558;9.704;2022-07-06T10:39:33;3.33;;;1.43;;
27161;SDS011;54464;50.558;9.704;2022-07-06T10:43:21;2.90;;;1.40;;
27161;SDS011;54464;50.558;9.704;2022-07-06T10:50:36;1.70;;;1.20;;
27161;SDS011;54464;50.558;9.704;2022-07-06T10:53:02;2.43;;;1.10;;
27161;SDS011;54464;50.558;9.704;2022-07-06T10:55:37;3.17;;;1.33;;
27161;SDS011;54464;50.558;9.704;2022-07-06T10:58:04;1.73;;;1.23;;
27161;SDS011;54464;50.558;9.704;2022-07-06T11:04:04;3.10;;;1.20;;
27161;SDS011;54464;50.558;9.704;2022-07-06T11:09:31;2.97;;;1.40;;
27161;SDS011;54464;50.558;9.704;2022-07-06T11:16:36;2.63;;;1.10;;
27161;SDS011;54464;50.558;9.704;2022-07-06T11:24:11;1.47;;;1.20;;
27161;SDS011;54464;50.558;9.704;2022-07-06T11:26:39;2.27;;;1.40;;
27161;SDS011;54464;50.558;9.704;2022-07-06T11:29:07;1.37;;;1.20;;
27161;SDS011;54464;50.558;9.704;2022-07-06T11:31:35;3.90;;;1.33;;
27161;SDS011;54464;50.558;9.704;2022-07-06T11:34:06;2.60;;;1.13;;
27161;SDS011;54464;50.558;9.704;2022-07-06T11:36:33;3.33;;;1.20;;
27161;SDS011;54464;50.558;9.704;2022-07-06T11:38:59;2.28;;;1.00;;
27161;SDS011;54464;50.558;9.704;2022-07-06T11:41:25;3.15;;;1.13;;
27161;SDS011;54464;50.558;9.704;2022-07-06T11:43:51;1.58;;;0.77;;
27161;SDS011;54464;50.558;9.704;2022-07-06T11:46:18;2.10;;;0.82;;
27161;SDS011;54464;50.558;9.704;2022-07-06T11:48:53;2.42;;;1.00;;
27161;SDS011;54464;50.558;9.704;2022-07-06T11:51:20;1.38;;;0.90;;
27161;SDS011;54464;50.558;9.704;2022-07-06T11:53:47;1.70;;;1.20;;
27161;SDS011;54464;50.558;9.704;2022-07-06T11:56:15;2.45;;;1.20;;
27161;SDS011;54464;50.558;9.704;2022-07-06T11:58:46;4.28;;;1.30;;
27161;SDS011;54464;50.558;9.704;2022-07-06T12:01:14;1.40;;;1.20;;
27161;SDS011;54464;50.558;9.704;2022-07-06T12:03:41;2.37;;;1.30;;
27161;SDS011;54464;50.558;9.704;2022-07-06T12:06:15;2.20;;;1.33;;
27161;SDS011;54464;50.558;9.704;2022-07-06T12:08:45;1.43;;;1.27;;
27161;SDS011;54464;50.558;9.704;2022-07-06T12:11:34;1.47;;;1.33;;
27161;SDS011;54464;50.558;9.704;2022-07-06T12:14:02;4.07;;;1.35;;
27161;SDS011;54464;50.558;9.704;2022-07-06T12:16:37;1.33;;;1.10;;
27161;SDS011;54464;50.558;9.704;2022-07-06T12:19:04;1.92;;;1.10;;
27161;SDS011;54464;50.558;9.704;2022-07-06T12:21:31;2.95;;;1.10;;
27161;SDS011;54464;50.558;9.704;2022-07-06T12:23:58;2.63;;;1.05;;
27161;SDS011;54464;50.558;9.704;2022-07-06T12:26:25;4.07;;;1.25;;
27161;SDS011;54464;50.558;9.704;2022-07-06T12:29:03;3.75;;;1.10;;
27161;SDS011;54464;50.558;9.704;2022-07-06T12:31:35;2.85;;;1.10;;
27161;SDS011;54464;50.558;9.704;2022-07-06T12:34:03;2.08;;;1.08;;
27161;SDS011;54464;50.558;9.704;2022-07-06T12:36:30;2.83;;;1.20;;
27161;SDS011;54464;50.558;9.704;2022-07-06T12:38:56;2.65;;;1.15;;
27161;SDS011;54464;50.558;9.704;2022-07-06T12:41:33;2.42;;;1.00;;
27161;SDS011;54464;50.558;9.704;2022-07-06T12:44:03;2.15;;;1.00;;
27161;SDS011;54464;50.558;9.704;2022-07-06T12:46:32;1.45;;;0.93;;
27161;SDS011;54464;50.558;9.704;2022-07-06T12:49:00;2.67;;;1.10;;
27161;SDS011;54464;50.558;9.704;2022-07-06T12:51:27;1.67;;;0.85;;
27161;SDS011;54464;50.558;9.704;2022-07-06T12:54:11;2.05;;;1.30;;
27161;SDS011;54464;50.558;9.704;2022-07-06T12:56:55;1.42;;;0.90;;
27161;SDS011;54464;50.558;9.704;2022-07-06T12:59:22;2.97;;;0.90;;
27161;SDS011;54464;50.558;9.704;2022-07-06T13:01:48;1.63;;;0.90;;
27161;SDS011;54464;50.558;9.704;2022-07-06T13:04:15;3.00;;;1.10;;
27161;SDS011;54464;50.558;9.704;2022-07-06T13:06:41;2.08;;;1.00;;
27161;SDS011;54464;50.558;9.704;2022-07-06T13:09:07;1.33;;;1.00;;
27161;SDS011;54464;50.558;9.704;2022-07-06T13:11:32;3.00;;;1.10;;
27161;SDS011;54464;50.558;9.704;2022-07-06T13:13:58;1.52;;;0.82;;
27161;SDS011;54464;50.558;9.704;2022-07-06T13:16:24;1.33;;;0.70;;
27161;SDS011;54464;50.558;9.704;2022-07-06T13:18:55;3.88;;;0.90;;
27161;SDS011;54464;50.558;9.704;2022-07-06T13:21:21;1.58;;;0.90;;
27161;SDS011;54464;50.558;9.704;2022-07-06T13:23:47;1.65;;;0.98;;
27161;SDS011;54464;50.558;9.704;2022-07-06T13:26:13;1.20;;;1.10;;
27161;SDS011;54464;50.558;9.704;2022-07-06T13:28:38;2.38;;;1.00;;
27161;SDS011;54464;50.558;9.704;2022-07-06T13:31:04;2.42;;;1.05;;
27161;SDS011;54464;50.558;9.704;2022-07-06T13:33:30;1.90;;;0.90;;
27161;SDS011;54464;50.558;9.704;2022-07-06T13:35:56;3.45;;;1.13;;
27161;SDS011;54464;50.558;9.704;2022-07-06T13:38:24;1.70;;;0.95;;
27161;SDS011;54464;50.558;9.704;2022-07-06T13:40:50;2.38;;;1.10;;
27161;SDS011;54464;50.558;9.704;2022-07-06T13:43:16;3.95;;;1.15;;
27161;SDS011;54464;50.558;9.704;2022-07-06T13:45:41;2.20;;;0.80;;
27161;SDS011;54464;50.558;9.704;2022-07-06T13:48:07;1.23;;;0.82;;
27161;SDS011;54464;50.558;9.704;2022-07-06T13:50:33;2.42;;;1.00;;
27161;SDS011;54464;50.558;9.704;2022-07-06T13:52:58;1.95;;;1.15;;
27161;SDS011;54464;50.558;9.704;2022-07-06T13:55:24;1.33;;;0.90;;
27161;SDS011;54464;50.558;9.704;2022-07-06T13:57:51;1.75;;;0.88;;
27161;SDS011;54464;50.558;9.704;2022-07-06T14:00:16;1.30;;;0.80;;
27161;SDS011;54464;50.558;9.704;2022-07-06T14:02:43;2.13;;;1.02;;
27161;SDS011;54464;50.558;9.704;2022-07-06T14:05:10;2.10;;;0.90;;
27161;SDS011;54464;50.558;9.704;2022-07-06T14:07:35;1.67;;;0.88;;
27161;SDS011;54464;50.558;9.704;2022-07-06T14:10:01;1.35;;;0.75;;
27161;SDS011;54464;50.558;9.704;2022-07-06T14:12:28;1.25;;;0.70;;
27161;SDS011;54464;50.558;9.704;2022-07-06T14:14:53;1.55;;;0.90;;
27161;SDS011;54464;50.558;9.704;2022-07-06T14:17:19;1.52;;;0.90;;
27161;SDS011;54464;50.558;9.704;2022-07-06T14:19:45;3.90;;;0.90;;
27161;SDS011;54464;50.558;9.704;2022-07-06T14:22:11;2.08;;;0.80;;
27161;SDS011;54464;50.558;9.704;2022-07-06T14:24:36;1.33;;;0.65;;
27161;SDS011;54464;50.558;9.704;2022-07-06T14:27:02;1.95;;;0.80;;
27161;SDS011;54464;50.558;9.704;2022-07-06T14:29:28;2.35;;;0.88;;
27161;SDS011;54464;50.558;9.704;2022-07-06T14:31:54;3.60;;;1.00;;
27161;SDS011;54464;50.558;9.704;2022-07-06T14:34:19;2.47;;;0.95;;
27161;SDS011;54464;50.558;9.704;2022-07-06T14:36:45;3.67;;;1.10;;
27161;SDS011;54464;50.558;9.704;2022-07-06T14:39:11;1.55;;;0.90;;
27161;SDS011;54464;50.558;9.704;2022-07-06T14:41:37;1.05;;;0.60;;
27161;SDS011;54464;50.558;9.704;2022-07-06T14:44:03;2.97;;;1.05;;
27161;SDS011;54464;50.558;9.704;2022-07-06T14:46:30;1.70;;;0.90;;
27161;SDS011;54464;50.558;9.704;2022-07-06T14:48:56;5.25;;;1.20;;
27161;SDS011;54464;50.558;9.704;2022-07-06T14:51:21;2.92;;;0.90;;
27161;SDS011;54464;50.558;9.704;2022-07-06T14:53:47;1.88;;;0.73;;
27161;SDS011;54464;50.558;9.704;2022-07-06T14:56:13;1.58;;;0.85;;
27161;SDS011;54464;50.558;9.704;2022-07-06T14:58:38;3.40;;;1.10;;
27161;SDS011;54464;50.558;9.704;2022-07-06T15:01:04;1.92;;;0.77;;
27161;SDS011;54464;50.558;9.704;2022-07-06T15:03:30;5.72;;;0.90;;
27161;SDS011;54464;50.558;9.704;2022-07-06T15:05:56;2.75;;;0.75;;
27161;SDS011;54464;50.558;9.704;2022-07-06T15:08:22;2.97;;;0.90;;
27161;SDS011;54464;50.558;9.704;2022-07-06T15:10:47;2.33;;;0.88;;